Time;durP1;ratioP1;P1;durP2;ratioP2;P2;SDS_P1;SDS_P2;PMS_P1;PMS_P2;Temp;Humidity;BMP_temperature;BMP_pressure;BME280_temperature;BME280_humidity;BME280_pressure;Samples;Min_cycle;Max_cycle;Signal;HPM_P1;HPM_P2
2022/11/24 05:30:40;;;;;;;;;2.00;0.00;;;;;9.60;76.63;100679.25;4992245;28;45496;-71
2022/11/24 05:33:17;;;;;;;;;1.25;0.75;;;;;9.51;76.06;100655.56;4957657;28;45279;-73
2022/11/24 05:35:44;;;;;;;;;1.25;1.25;;;;;9.53;76.44;100660.84;4962217;28;45515;-71
2022/11/24 05:38:09;;;;;;;;;0.00;0.00;;;;;9.56;76.80;100682.97;4938371;28;46032;-73
2022/11/24 05:40:35;;;;;;;;;1.75;0.00;;;;;9.61;76.68;100680.97;4938252;28;45462;-71
2022/11/24 05:43:03;;;;;;;;;1.00;0.75;;;;;9.68;76.43;100679.78;4938071;28;45318;-73
2022/11/24 05:45:28;;;;;;;;;1.00;1.00;;;;;9.70;76.25;100685.94;4937890;28;45500;-73
2022/11/24 05:47:54;;;;;;;;;3.25;1.75;;;;;9.71;75.78;100692.16;4938188;28;46325;-71
2022/11/24 05:50:21;;;;;;;;;0.00;0.00;;;;;9.69;75.84;100684.22;4937754;28;45288;-71
2022/11/24 05:52:47;;;;;;;;;2.25;1.75;;;;;9.74;75.86;100700.06;4938295;28;45701;-73
2022/11/24 05:55:14;;;;;;;;;2.00;1.00;;;;;9.73;75.95;100692.97;4937678;28;45580;-72
2022/11/24 05:57:42;;;;;;;;;1.50;1.50;;;;;9.69;75.75;100700.28;4937718;28;46345;-72
2022/11/24 06:00:09;;;;;;;;;3.50;2.50;;;;;9.75;76.07;100709.84;4937779;28;45465;-72
2022/11/24 06:02:34;;;;;;;;;3.00;1.00;;;;;9.69;75.85;100716.34;4938290;28;45371;-71
2022/11/24 06:05:00;;;;;;;;;0.75;0.25;;;;;9.64;76.09;100696.03;4937458;28;45380;-72
2022/11/24 06:07:25;;;;;;;;;2.50;1.00;;;;;9.73;76.25;100725.97;4937993;28;47054;-73
2022/11/24 06:09:51;;;;;;;;;3.25;2.00;;;;;9.70;75.86;100706.47;4937514;28;45513;-74
2022/11/24 06:12:16;;;;;;;;;1.75;0.00;;;;;9.79;75.89;100723.00;4941013;28;45490;-72
2022/11/24 06:14:42;;;;;;;;;2.00;0.50;;;;;9.73;75.90;100723.28;4937790;28;46017;-75
2022/11/24 06:17:12;;;;;;;;;1.75;1.00;;;;;9.73;75.65;100720.59;4937991;28;46478;-73
2022/11/24 06:19:37;;;;;;;;;1.25;0.00;;;;;9.79;76.02;100727.50;4937396;28;45465;-73
2022/11/24 06:22:03;;;;;;;;;5.00;1.00;;;;;9.78;76.07;100736.50;4938056;28;45356;-75
2022/11/24 06:24:28;;;;;;;;;2.00;1.00;;;;;9.74;75.87;100726.84;4937646;28;46123;-75
2022/11/24 06:26:54;;;;;;;;;2.00;0.25;;;;;9.79;75.68;100740.88;4938354;28;45667;-72
2022/11/24 06:29:19;;;;;;;;;0.00;0.00;;;;;9.79;76.00;100738.19;4937265;28;45370;-71
2022/11/24 06:31:44;;;;;;;;;3.75;1.00;;;;;9.60;75.95;100714.06;4955921;28;45319;-72
2022/11/24 06:34:12;;;;;;;;;6.25;2.00;;;;;9.80;76.03;100745.31;4957486;28;47099;-70
2022/11/24 06:36:38;;;;;;;;;4.25;0.75;;;;;9.82;75.98;100749.66;4976383;28;45608;-71
2022/11/24 06:39:04;;;;;;;;;2.00;0.25;;;;;9.72;75.88;100736.72;4975957;28;45404;-69
2022/11/24 06:41:31;;;;;;;;;2.00;0.50;;;;;9.75;76.13;100745.50;4975929;28;45251;-71
2022/11/24 06:43:57;;;;;;;;;5.00;2.00;;;;;9.76;76.22;100751.75;4975564;28;45355;-73
2022/11/24 06:46:23;;;;;;;;;1.75;1.75;;;;;9.70;76.48;100749.31;4976221;28;45576;-74
2022/11/24 06:48:51;;;;;;;;;2.75;1.00;;;;;9.82;76.00;100762.19;4975635;28;45475;-75
2022/11/24 06:51:17;;;;;;;;;1.75;0.75;;;;;9.85;76.25;100768.28;4976330;28;45574;-75
2022/11/24 06:53:44;;;;;;;;;0.50;0.50;;;;;9.91;76.35;100766.28;4975719;28;46404;-73
2022/11/24 06:56:11;;;;;;;;;0.75;0.50;;;;;9.90;76.33;100767.22;4975812;28;46425;-72
2022/11/24 06:58:41;;;;;;;;;1.00;1.00;;;;;9.73;76.75;100758.09;4975945;28;45344;-72
2022/11/24 07:01:07;;;;;;;;;2.00;1.00;;;;;9.79;76.62;100776.56;4976181;28;45375;-72
2022/11/24 07:03:32;;;;;;;;;5.25;0.75;;;;;9.76;76.75;100768.69;4957834;28;47270;-74
2022/11/24 07:05:58;;;;;;;;;1.50;1.00;;;;;9.88;76.63;100792.25;4975451;28;46071;-74
2022/11/24 07:08:24;;;;;;;;;1.00;1.00;;;;;9.90;76.66;100800.22;4974283;28;45318;-74
2022/11/24 07:10:51;;;;;;;;;1.00;1.00;;;;;9.90;76.96;100812.72;4975878;28;45413;-74
2022/11/24 07:13:17;;;;;;;;;0.50;0.50;;;;;9.93;76.66;100815.28;4977619;28;45260;-73
2022/11/24 07:15:43;;;;;;;;;1.00;1.00;;;;;9.90;77.00;100807.38;4978934;28;46192;-73
2022/11/24 07:18:08;;;;;;;;;1.75;1.75;;;;;9.82;77.34;100819.28;4978740;28;45393;-73
2022/11/24 07:20:34;;;;;;;;;2.75;1.00;;;;;9.71;77.70;100812.63;4979930;28;45362;-73
2022/11/24 07:22:59;;;;;;;;;1.75;1.00;;;;;9.74;77.80;100808.03;4979593;28;45410;-75
2022/11/24 07:25:25;;;;;;;;;2.75;0.00;;;;;9.69;77.68;100818.06;4977587;28;45949;-73
2022/11/24 07:27:57;;;;;;;;;6.50;2.50;;;;;9.68;77.92;100828.81;4957644;28;45333;-74
2022/11/24 07:30:24;;;;;;;;;1.00;1.00;;;;;9.64;78.30;100825.38;4975534;28;45462;-75
2022/11/24 07:32:49;;;;;;;;;1.75;1.75;;;;;9.66;77.86;100838.72;4975171;28;45241;-75
2022/11/24 07:35:15;;;;;;;;;2.75;2.00;;;;;9.64;78.37;100833.41;4975335;28;45334;-73
2022/11/24 07:37:40;;;;;;;;;1.00;1.00;;;;;9.53;78.38;100826.78;4975469;28;45364;-73
2022/11/24 07:40:06;;;;;;;;;3.75;3.00;;;;;9.49;78.96;100826.88;4975676;28;45364;-73
2022/11/24 07:42:32;;;;;;;;;3.00;1.50;;;;;9.57;78.53;100831.06;4974789;28;45368;-74
2022/11/24 07:44:57;;;;;;;;;4.25;2.25;;;;;9.50;79.09;100822.41;4975328;28;46020;-73
2022/11/24 07:47:23;;;;;;;;;2.50;2.50;;;;;9.51;79.16;100842.88;4975044;28;45469;-73
2022/11/24 07:49:48;;;;;;;;;2.75;2.75;;;;;9.46;79.74;100844.84;4975408;28;45354;-73
2022/11/24 07:52:13;;;;;;;;;2.00;2.00;;;;;9.39;79.47;100840.69;4975096;28;45325;-74
2022/11/24 07:54:39;;;;;;;;;3.25;2.00;;;;;9.55;79.51;100855.19;4957584;28;48235;-72
2022/11/24 07:57:05;;;;;;;;;4.75;2.50;;;;;9.49;79.91;100845.63;4974780;28;46503;-72
2022/11/24 07:59:31;;;;;;;;;3.00;3.00;;;;;9.52;79.88;100862.50;4975620;28;45156;-74
2022/11/24 08:01:56;;;;;;;;;6.25;3.00;;;;;9.43;79.73;100856.56;4975143;28;45267;-74
2022/11/24 08:04:21;;;;;;;;;7.25;3.25;;;;;9.46;79.46;100850.22;4975001;28;45318;-74
2022/11/24 08:06:47;;;;;;;;;7.75;0.00;;;;;9.36;79.78;100849.69;4974550;28;45207;-73
2022/11/24 08:09:12;;;;;;;;;4.50;2.75;;;;;9.47;79.90;100868.88;4974785;28;45305;-74
2022/11/24 08:11:37;;;;;;;;;5.25;5.25;;;;;9.48;79.96;100864.41;4967050;28;46014;-72
2022/11/24 08:14:03;;;;;;;;;7.00;4.25;;;;;9.51;79.88;100868.78;4975069;28;45288;-74
2022/11/24 08:16:28;;;;;;;;;5.00;5.00;;;;;9.57;79.53;100866.72;4973141;28;45424;-73
2022/11/24 08:18:54;;;;;;;;;5.75;4.00;;;;;9.60;79.41;100873.78;4974178;28;45455;-74
2022/11/24 08:21:24;;;;;;;;;6.00;3.25;;;;;9.63;79.47;100876.31;4974338;28;45254;-73
2022/11/24 08:23:53;;;;;;;;;5.25;3.75;;;;;9.75;79.48;100897.25;4974670;28;45312;-72
2022/11/24 08:26:18;;;;;;;;;7.50;5.50;;;;;9.80;78.95;100893.44;4973804;28;45456;-73
2022/11/24 08:28:46;;;;;;;;;4.00;4.00;;;;;9.82;78.95;100896.06;4974944;28;45333;-75
2022/11/24 08:31:15;;;;;;;;;6.50;3.25;;;;;9.82;79.09;100907.66;4974006;28;45430;-72
2022/11/24 08:33:41;;;;;;;;;5.50;5.50;;;;;9.80;79.59;100909.50;4945201;28;47390;-73
2022/11/24 08:36:10;;;;;;;;;9.50;1.50;;;;;9.76;79.39;100901.66;4972594;28;45457;-73
2022/11/24 08:38:36;;;;;;;;;5.25;4.00;;;;;9.90;79.18;100911.81;4974670;28;45290;-73
2022/11/24 08:41:07;;;;;;;;;3.25;3.00;;;;;9.94;78.75;100903.59;4974502;28;45347;-74
2022/11/24 08:43:33;;;;;;;;;5.00;4.50;;;;;10.06;78.92;100920.97;4973957;28;46197;-74
2022/11/24 08:46:05;;;;;;;;;8.50;5.00;;;;;9.96;79.09;100915.09;4972230;28;45698;-74
2022/11/24 08:48:30;;;;;;;;;4.50;4.25;;;;;9.88;79.43;100901.16;4974179;28;45314;-73
2022/11/24 08:50:57;;;;;;;;;5.25;4.00;;;;;10.02;79.09;100908.66;4956670;28;47345;-74
2022/11/24 08:53:22;;;;;;;;;5.75;3.00;;;;;9.96;79.37;100907.06;4974470;28;46514;-73
2022/11/24 08:55:48;;;;;;;;;1.00;1.00;;;;;9.90;79.52;100911.81;4974116;28;45405;-74
2022/11/24 08:58:13;;;;;;;;;6.75;3.00;;;;;9.81;79.78;100927.31;4974491;28;45252;-72
2022/11/24 09:00:38;;;;;;;;;5.50;4.00;;;;;9.79;80.28;100913.09;4974433;28;45589;-75
2022/11/24 09:03:04;;;;;;;;;4.75;2.00;;;;;9.86;80.21;100913.75;4973193;28;46131;-74
2022/11/24 09:05:29;;;;;;;;;4.25;3.00;;;;;9.70;79.91;100893.84;4975154;28;45333;-73
2022/11/24 09:07:54;;;;;;;;;7.75;2.50;;;;;9.78;79.81;100905.16;4978219;28;45431;-75
2022/11/24 09:10:20;;;;;;;;;7.00;2.00;;;;;9.84;80.07;100918.31;4977394;28;45614;-73
2022/11/24 09:12:46;;;;;;;;;3.75;2.25;;;;;9.88;79.84;100918.09;4960193;28;47192;-74
2022/11/24 09:15:13;;;;;;;;;2.00;2.00;;;;;9.78;79.76;100914.03;4960128;28;45347;-72
2022/11/24 09:17:39;;;;;;;;;2.75;2.75;;;;;9.79;79.50;100914.91;4956904;28;45295;-75
2022/11/24 09:20:05;;;;;;;;;4.50;2.25;;;;;9.81;79.92;100923.75;4977256;28;45377;-74
2022/11/24 09:22:30;;;;;;;;;2.00;2.00;;;;;9.79;79.42;100918.47;4963755;28;45474;-72
2022/11/24 09:24:56;;;;;;;;;1.75;1.75;;;;;9.82;79.49;100920.16;4963017;28;45321;-73
2022/11/24 09:27:21;;;;;;;;;1.75;1.75;;;;;9.90;79.05;100925.19;4981341;28;45508;-73
2022/11/24 09:29:46;;;;;;;;;5.00;2.00;;;;;9.94;79.07;100918.81;4962693;28;45396;-72
2022/11/24 09:32:12;;;;;;;;;2.00;2.00;;;;;10.02;78.55;100925.59;4979049;28;45178;-74
2022/11/24 09:34:37;;;;;;;;;5.00;3.00;;;;;10.02;78.75;100922.91;4976610;28;45281;-74
2022/11/24 09:37:04;;;;;;;;;8.25;3.25;;;;;10.09;78.46;100920.84;4976691;28;45203;-75
2022/11/24 09:39:29;;;;;;;;;4.00;2.00;;;;;10.14;78.11;100916.16;4976496;28;45591;-73
2022/11/24 09:42:24;;;;;;;;;4.50;3.25;;;;;10.24;78.25;100913.06;4977058;28;46509;-74
2022/11/24 09:44:59;;;;;;;;;5.00;2.50;;;;;10.39;77.84;100913.34;4939409;28;45503;-75
2022/11/24 09:47:40;;;;;;;;;5.00;5.00;;;;;10.46;77.37;100912.19;4976961;28;45274;-73
2022/11/24 09:50:18;;;;;;;;;4.00;4.00;;;;;10.54;77.07;100912.72;4976460;28;45457;-74
2022/11/24 09:52:53;;;;;;;;;4.25;3.25;;;;;10.47;76.58;100897.81;4959067;28;47628;-74
2022/11/24 09:55:30;;;;;;;;;5.00;5.00;;;;;10.63;76.76;100921.22;4976688;28;45262;-73
2022/11/24 09:58:09;;;;;;;;;7.00;4.00;;;;;10.66;76.58;100925.59;4959409;28;45499;-73
2022/11/24 10:00:36;;;;;;;;;2.00;2.00;;;;;10.71;76.38;100942.38;4959192;28;46030;-74
2022/11/24 10:03:03;;;;;;;;;3.75;2.25;;;;;10.69;76.45;100922.78;4959105;28;46174;-74
2022/11/24 10:05:33;;;;;;;;;7.00;3.75;;;;;10.84;76.15;100943.56;4976311;28;45270;-72
2022/11/24 10:08:29;;;;;;;;;2.00;2.00;;;;;10.87;75.91;100951.50;4959067;28;45376;-75
2022/11/24 10:11:06;;;;;;;;;4.25;3.25;;;;;10.88;75.65;100952.38;4976737;28;45290;-73
2022/11/24 10:14:16;;;;;;;;;4.75;3.00;;;;;10.99;75.54;100936.66;4976527;28;46236;-74
2022/11/24 10:17:14;;;;;;;;;3.75;3.00;;;;;11.06;75.07;100932.75;4895954;29;45398;-73
2022/11/24 10:19:49;;;;;;;;;2.00;2.00;;;;;11.11;75.00;100941.47;4897206;29;45425;-72
2022/11/24 10:22:41;;;;;;;;;4.00;2.25;;;;;11.19;75.39;100920.53;4955219;28;45323;-72
2022/11/24 10:25:29;;;;;;;;;2.00;2.00;;;;;11.26;74.70;100908.56;4976416;28;46541;-72
2022/11/24 10:27:58;;;;;;;;;5.25;2.50;;;;;11.34;74.35;100913.56;4976550;28;45377;-72
2022/11/24 10:30:24;;;;;;;;;3.25;1.75;;;;;11.34;74.71;100911.75;4976261;28;45412;-74
2022/11/24 10:32:57;;;;;;;;;3.50;2.00;;;;;11.45;74.05;100903.22;4975839;28;45370;-73
2022/11/24 10:35:36;;;;;;;;;11.00;2.75;;;;;11.49;74.15;100909.28;4976017;28;45401;-74
2022/11/24 10:38:19;;;;;;;;;2.75;2.00;;;;;11.44;73.81;100889.88;4976354;28;45395;-75
2022/11/24 10:40:53;;;;;;;;;5.25;3.75;;;;;11.53;73.66;100898.34;4976183;28;45388;-75
2022/11/24 10:43:18;;;;;;;;;3.25;3.25;;;;;11.54;73.33;100886.69;4976312;28;45284;-74
2022/11/24 10:45:44;;;;;;;;;4.00;4.00;;;;;11.68;72.98;100894.94;4974593;28;45386;-75
2022/11/24 10:48:26;;;;;;;;;3.50;2.25;;;;;11.79;72.23;100897.16;4975339;28;45625;-74
2022/11/24 10:51:22;;;;;;;;;2.50;2.25;;;;;11.89;72.18;100889.50;4975841;28;45578;-74
2022/11/24 10:53:47;;;;;;;;;3.00;3.00;;;;;12.07;71.43;100899.38;4974936;28;45294;-74
2022/11/24 10:56:12;;;;;;;;;6.00;1.00;;;;;12.24;70.95;100888.63;4975998;28;45995;-73
2022/11/24 10:58:38;;;;;;;;;4.00;2.25;;;;;12.40;70.45;100894.97;4974844;28;51820;-74
2022/11/24 11:01:12;;;;;;;;;4.25;3.00;;;;;12.60;68.84;100891.25;4976322;28;45783;-73
2022/11/24 11:03:50;;;;;;;;;2.50;2.00;;;;;13.11;68.00;100884.03;4975812;28;45327;-73
2022/11/24 11:06:23;;;;;;;;;2.75;2.75;;;;;13.94;65.73;100854.28;4975541;28;46113;-74
2022/11/24 11:08:48;;;;;;;;;2.75;2.00;;;;;15.11;62.28;100866.06;4975662;28;45338;-74
2022/11/24 11:11:28;;;;;;;;;5.00;2.00;;;;;16.34;59.09;100860.66;4975817;28;45437;-75
2022/11/24 11:13:59;;;;;;;;;4.00;4.00;;;;;17.50;56.15;100853.38;4946909;28;46255;-74
2022/11/24 11:16:35;;;;;;;;;4.00;2.75;;;;;18.44;53.11;100846.28;4975566;28;46096;-74
2022/11/24 11:19:04;;;;;;;;;9.00;5.00;;;;;19.40;51.37;100851.38;4975887;28;45330;-73
2022/11/24 11:21:35;;;;;;;;;2.75;2.50;;;;;19.90;48.52;100833.69;4975564;28;45396;-74
2022/11/24 11:24:13;;;;;;;;;4.50;3.00;;;;;20.17;46.54;100838.66;4975547;28;45335;-73
2022/11/24 11:26:41;;;;;;;;;5.25;3.75;;;;;20.13;47.41;100837.22;4957848;28;47258;-73
2022/11/24 11:29:06;;;;;;;;;4.75;3.50;;;;;19.69;48.09;100835.47;4975211;28;45330;-74
2022/11/24 11:31:33;;;;;;;;;4.50;4.50;;;;;19.01;48.65;100804.69;4957186;28;45488;-75
2022/11/24 11:34:13;;;;;;;;;5.00;4.75;;;;;18.30;49.40;100821.16;4941179;28;46229;-73
2022/11/24 11:36:43;;;;;;;;;5.50;4.00;;;;;17.78;51.54;100820.56;4974799;28;47311;-73
2022/11/24 11:39:22;;;;;;;;;7.50;5.75;;;;;17.35;52.78;100814.69;4957862;28;46007;-74
2022/11/24 11:41:50;;;;;;;;;5.50;3.50;;;;;16.77;53.64;100812.59;4977746;28;45266;-73
2022/11/24 11:44:31;;;;;;;;;5.00;5.00;;;;;16.34;55.33;100820.06;4976306;28;45275;-73
2022/11/24 11:46:58;;;;;;;;;4.50;4.25;;;;;15.93;56.00;100809.38;4974910;28;45393;-74
2022/11/24 11:49:24;;;;;;;;;8.50;5.75;;;;;15.61;56.89;100818.75;4975142;28;45490;-73
2022/11/24 11:52:13;;;;;;;;;7.25;5.00;;;;;15.26;57.97;100805.66;4974966;28;45552;-73
2022/11/24 11:55:05;;;;;;;;;8.50;4.75;;;;;14.94;59.44;100802.31;4975125;28;45302;-73
2022/11/24 11:57:44;;;;;;;;;3.50;3.50;;;;;14.64;60.03;100794.28;4966037;28;46156;-74
2022/11/24 12:00:20;;;;;;;;;6.25;5.75;;;;;14.58;60.89;100813.56;4974852;28;45381;-74
2022/11/24 12:03:10;;;;;;;;;6.00;6.00;;;;;14.36;61.25;100823.91;4974992;28;45455;-74
2022/11/24 12:06:00;;;;;;;;;10.25;7.25;;;;;14.14;61.75;100812.63;4974723;28;45223;-72
2022/11/24 12:08:34;;;;;;;;;5.25;5.25;;;;;14.03;62.50;100807.91;4973789;28;45592;-74
2022/11/24 12:11:11;;;;;;;;;11.50;5.00;;;;;13.88;62.91;100806.97;4973952;28;45361;-73
2022/11/24 12:14:05;;;;;;;;;13.50;6.00;;;;;13.73;63.76;100807.00;4961891;28;45311;-73
2022/11/24 12:16:31;;;;;;;;;7.50;5.00;;;;;13.62;64.07;100794.13;4974558;28;45379;-74
2022/11/24 12:19:12;;;;;;;;;8.75;6.25;;;;;13.41;64.09;100761.22;4974442;28;45266;-73
2022/11/24 12:21:47;;;;;;;;;8.75;5.25;;;;;13.57;64.58;100786.31;4974547;28;45234;-73
2022/11/24 12:24:54;;;;;;;;;7.25;5.00;;;;;13.58;64.58;100792.59;4974409;28;45275;-73
2022/11/24 12:27:40;;;;;;;;;7.00;5.50;;;;;13.22;65.09;100739.88;4964414;28;45531;-72
2022/11/24 12:30:15;;;;;;;;;7.25;4.75;;;;;13.50;65.07;100793.03;4974644;28;46272;-74
2022/11/24 12:32:49;;;;;;;;;4.00;4.00;;;;;13.47;65.56;100786.94;4974043;28;45532;-73
2022/11/24 12:35:30;;;;;;;;;3.75;3.75;;;;;13.50;65.72;100786.78;4974516;28;45476;-73
2022/11/24 12:37:59;;;;;;;;;7.00;5.75;;;;;13.54;65.83;100782.94;4973653;28;45992;-72
2022/11/24 12:40:45;;;;;;;;;7.00;5.00;;;;;13.54;65.60;100777.53;4975198;28;46184;-76
2022/11/24 12:43:10;;;;;;;;;7.50;3.75;;;;;13.49;65.58;100782.34;4958481;28;45382;-73
2022/11/24 12:46:08;;;;;;;;;3.00;2.00;;;;;13.42;65.04;100773.75;4958160;28;45726;-75
2022/11/24 12:48:43;;;;;;;;;5.00;3.25;;;;;13.34;65.20;100781.41;4930151;28;46363;-74
2022/11/24 12:51:27;;;;;;;;;6.50;5.50;;;;;13.34;65.02;100781.41;4958345;28;46521;-74
2022/11/24 12:53:56;;;;;;;;;3.25;3.25;;;;;13.34;65.18;100767.94;4957841;28;45501;-73
2022/11/24 12:56:36;;;;;;;;;3.25;3.00;;;;;13.34;65.30;100765.25;4958386;28;45504;-74
2022/11/24 12:59:24;;;;;;;;;5.25;4.75;;;;;13.40;65.51;100755.94;4958194;28;45529;-74
2022/11/24 13:01:53;;;;;;;;;9.25;5.00;;;;;13.47;65.51;100770.78;4957964;28;45287;-74
2022/11/24 13:04:36;;;;;;;;;6.50;5.00;;;;;13.53;65.54;100752.44;4957968;28;45364;-72
2022/11/24 13:07:24;;;;;;;;;4.50;4.50;;;;;13.60;65.62;100756.53;4958318;28;45337;-74
2022/11/24 13:10:24;;;;;;;;;5.00;3.00;;;;;13.62;65.41;100742.94;4957989;28;45398;-72
2022/11/24 13:12:56;;;;;;;;;2.00;2.00;;;;;13.62;64.13;100749.19;4970380;28;45386;-75
2022/11/24 13:15:22;;;;;;;;;7.25;4.75;;;;;13.54;64.51;100726.38;4976828;28;45472;-74
2022/11/24 13:17:48;;;;;;;;;4.25;4.00;;;;;13.64;64.02;100751.81;4977096;28;45562;-72
2022/11/24 13:20:19;;;;;;;;;3.75;3.75;;;;;13.53;64.74;100740.78;4977418;28;45350;-74
2022/11/24 13:23:04;;;;;;;;;4.25;4.25;;;;;13.44;65.12;100744.88;4977117;28;45562;-74
2022/11/24 13:25:34;;;;;;;;;5.75;2.00;;;;;13.25;65.44;100717.31;4977268;28;45379;-74
2022/11/24 13:28:24;;;;;;;;;6.00;3.00;;;;;13.30;65.63;100733.19;4959831;28;45260;-74
2022/11/24 13:30:49;;;;;;;;;3.50;3.50;;;;;13.40;65.51;100740.66;4976739;28;45386;-74
2022/11/24 13:33:15;;;;;;;;;8.00;4.00;;;;;13.41;65.43;100741.50;4977101;28;46355;-74
2022/11/24 13:36:00;;;;;;;;;4.75;2.25;;;;;13.29;64.81;100715.28;4977249;28;45320;-74
2022/11/24 13:38:52;;;;;;;;;6.00;4.75;;;;;13.40;64.32;100727.19;4977089;28;45567;-73
2022/11/24 13:41:33;;;;;;;;;3.50;3.50;;;;;13.46;64.81;100745.66;4977378;28;45498;-73
2022/11/24 13:44:23;;;;;;;;;4.75;3.50;;;;;13.49;65.26;100737.41;4974871;28;46342;-73
2022/11/24 13:47:03;;;;;;;;;3.25;3.25;;;;;13.54;64.95;100726.38;4977102;28;45346;-73
2022/11/24 13:49:39;;;;;;;;;9.00;5.50;;;;;13.56;64.98;100724.47;4978098;28;45274;-74
2022/11/24 13:52:38;;;;;;;;;3.75;3.25;;;;;13.63;64.98;100721.31;4977672;28;45611;-74
2022/11/24 13:55:12;;;;;;;;;6.00;3.75;;;;;13.70;65.04;100729.91;4978009;28;45508;-74
2022/11/24 13:57:40;;;;;;;;;5.25;5.25;;;;;13.69;65.32;100741.66;4978398;28;45258;-74
2022/11/24 14:00:17;;;;;;;;;3.50;2.00;;;;;13.71;65.63;100745.09;4977652;28;45316;-73
2022/11/24 14:02:43;;;;;;;;;4.50;3.00;;;;;13.70;65.24;100735.28;4976864;28;46425;-73
2022/11/24 14:05:13;;;;;;;;;5.00;4.00;;;;;13.78;65.24;100745.63;4976317;28;45529;-73
2022/11/24 14:07:42;;;;;;;;;7.25;4.00;;;;;13.80;64.89;100760.72;4976627;28;45322;-74
2022/11/24 14:10:20;;;;;;;;;3.25;2.50;;;;;13.65;65.44;100750.88;4959139;28;45568;-73
2022/11/24 14:12:46;;;;;;;;;4.25;2.50;;;;;13.60;65.92;100750.28;4976749;28;45349;-75
2022/11/24 14:15:34;;;;;;;;;6.25;4.25;;;;;13.38;66.08;100730.91;4976220;28;45956;-74
2022/11/24 14:17:59;;;;;;;;;8.75;4.00;;;;;13.40;66.95;100739.78;4975681;28;46022;-73
2022/11/24 14:20:27;;;;;;;;;4.00;2.00;;;;;13.47;66.76;100741.16;4976662;28;45160;-74
2022/11/24 14:22:53;;;;;;;;;1.50;1.00;;;;;13.43;66.92;100740.47;4958591;28;45477;-73
2022/11/24 14:25:38;;;;;;;;;4.50;2.75;;;;;13.43;67.23;100740.47;4958527;28;46381;-73
2022/11/24 14:28:27;;;;;;;;;3.75;3.00;;;;;13.39;67.55;100732.66;4975575;28;45322;-72
2022/11/24 14:31:09;;;;;;;;;5.75;4.00;;;;;13.35;67.73;100723.91;4965947;28;45564;-73
2022/11/24 14:33:35;;;;;;;;;6.50;2.50;;;;;13.21;68.08;100692.38;4976026;28;45472;-74
2022/11/24 14:36:00;;;;;;;;;5.50;5.00;;;;;13.34;68.15;100707.81;4976062;28;45958;-73
2022/11/24 14:38:25;;;;;;;;;4.50;3.25;;;;;13.43;68.28;100710.84;4976087;28;45286;-74
2022/11/24 14:40:53;;;;;;;;;4.00;2.50;;;;;13.49;68.36;100715.88;4976059;28;45312;-72
2022/11/24 14:43:28;;;;;;;;;4.25;3.75;;;;;13.37;68.54;100681.56;4976283;28;45240;-72
2022/11/24 14:46:16;;;;;;;;;3.50;3.50;;;;;13.55;68.35;100688.56;4974661;28;45503;-72
2022/11/24 14:48:50;;;;;;;;;6.50;3.75;;;;;13.64;68.08;100703.31;4973946;28;46077;-74
2022/11/24 14:51:49;;;;;;;;;7.00;4.00;;;;;13.66;68.18;100690.63;4975429;28;45494;-75
2022/11/24 14:54:18;;;;;;;;;7.75;4.00;;;;;13.67;68.35;100689.69;4961090;28;45369;-75
2022/11/24 14:56:59;;;;;;;;;5.00;4.00;;;;;13.64;68.45;100684.47;4975982;28;45668;-73
2022/11/24 14:59:26;;;;;;;;;5.25;3.75;;;;;13.64;68.56;100684.47;4975941;28;45352;-73
2022/11/24 15:01:52;;;;;;;;;5.25;3.00;;;;;13.55;68.64;100680.50;4957525;28;45536;-73
2022/11/24 15:04:27;;;;;;;;;2.25;2.25;;;;;13.61;68.89;100698.97;4972872;28;45563;-72
2022/11/24 15:07:11;;;;;;;;;5.00;5.00;;;;;13.55;69.23;100701.16;4975654;28;45279;-74
2022/11/24 15:09:57;;;;;;;;;5.25;4.50;;;;;13.46;69.48;100702.56;4975539;28;45326;-73
2022/11/24 15:12:34;;;;;;;;;5.75;3.00;;;;;13.44;69.36;100699.09;4966113;28;45338;-73
2022/11/24 15:15:22;;;;;;;;;5.25;4.00;;;;;13.30;69.86;100676.63;4975318;28;45235;-74
2022/11/24 15:17:58;;;;;;;;;3.25;3.25;;;;;13.41;70.01;100684.97;4975509;28;45548;-73
2022/11/24 15:20:31;;;;;;;;;4.75;3.75;;;;;13.34;70.31;100692.53;4957966;28;45281;-73
2022/11/24 15:23:12;;;;;;;;;6.50;4.00;;;;;13.36;70.07;100687.91;4974237;28;45429;-73
2022/11/24 15:25:38;;;;;;;;;5.75;3.50;;;;;13.34;70.18;100692.53;4975154;28;45472;-73
2022/11/24 15:28:03;;;;;;;;;6.50;3.25;;;;;13.31;70.54;100691.84;4975122;28;46055;-73
2022/11/24 15:30:31;;;;;;;;;3.75;3.25;;;;;13.25;70.67;100687.69;4975075;28;45478;-73
2022/11/24 15:32:58;;;;;;;;;7.75;2.50;;;;;13.23;70.68;100689.59;4974939;28;45345;-72
2022/11/24 15:35:27;;;;;;;;;4.00;4.00;;;;;13.21;70.84;100689.66;4975456;28;45318;-73
2022/11/24 15:37:52;;;;;;;;;6.75;3.00;;;;;13.09;70.99;100668.81;4975058;28;45251;-73
2022/11/24 15:40:18;;;;;;;;;2.00;1.25;;;;;13.04;70.81;100654.75;4975057;28;45321;-73
2022/11/24 15:42:56;;;;;;;;;13.75;4.00;;;;;13.18;70.72;100672.84;4975486;28;45538;-73
2022/11/24 15:45:23;;;;;;;;;3.50;2.50;;;;;13.22;71.24;100677.94;4975275;28;45409;-73
2022/11/24 15:47:49;;;;;;;;;8.00;4.25;;;;;13.15;71.09;100668.50;4974976;28;46194;-74
2022/11/24 15:50:16;;;;;;;;;3.50;3.00;;;;;13.16;71.08;100670.25;4957471;28;45307;-75
2022/11/24 15:52:41;;;;;;;;;6.00;3.75;;;;;13.22;70.88;100674.38;4975663;28;45433;-73
2022/11/24 15:55:17;;;;;;;;;3.25;3.00;;;;;13.11;71.24;100657.94;4974934;28;45534;-73
2022/11/24 15:57:42;;;;;;;;;5.00;3.00;;;;;13.22;71.31;100666.31;4957854;28;47135;-72
2022/11/24 16:00:13;;;;;;;;;5.50;3.75;;;;;13.02;71.77;100637.81;4975746;28;45381;-74
2022/11/24 16:02:38;;;;;;;;;4.75;3.00;;;;;13.13;71.84;100658.72;4977375;28;45350;-73
2022/11/24 16:05:04;;;;;;;;;5.00;2.25;;;;;13.09;71.65;100638.34;4976039;28;45628;-73
2022/11/24 16:07:30;;;;;;;;;9.25;4.00;;;;;13.06;71.52;100628.63;4976613;28;46161;-71
2022/11/24 16:09:56;;;;;;;;;4.25;3.75;;;;;13.08;71.70;100642.88;4975807;28;45239;-73
2022/11/24 16:12:23;;;;;;;;;3.00;2.75;;;;;13.10;71.97;100640.94;4975025;28;45220;-74
2022/11/24 16:14:49;;;;;;;;;7.00;3.25;;;;;13.10;72.14;100643.63;4976252;28;45937;-73
2022/11/24 16:17:14;;;;;;;;;6.25;4.50;;;;;13.10;71.69;100642.78;4968505;28;46056;-73
2022/11/24 16:19:39;;;;;;;;;3.75;3.75;;;;;13.07;72.01;100651.03;4958440;28;45374;-73
2022/11/24 16:22:05;;;;;;;;;5.00;4.00;;;;;13.05;72.10;100640.34;4959258;28;45232;-73
2022/11/24 16:24:31;;;;;;;;;4.00;4.00;;;;;13.12;72.36;100644.41;4958478;28;45636;-73
2022/11/24 16:26:56;;;;;;;;;8.50;4.00;;;;;13.13;72.19;100643.47;4958930;28;45624;-73
2022/11/24 16:29:22;;;;;;;;;3.25;3.25;;;;;13.12;71.90;100644.41;4958759;28;45355;-74
2022/11/24 16:31:49;;;;;;;;;6.25;3.50;;;;;13.15;72.05;100668.50;4967553;28;45352;-74
2022/11/24 16:34:14;;;;;;;;;10.50;3.75;;;;;13.10;72.50;100648.16;4978140;28;45310;-74
2022/11/24 16:36:40;;;;;;;;;3.75;3.00;;;;;12.96;72.35;100626.53;4977425;28;45359;-73
2022/11/24 16:39:05;;;;;;;;;6.25;4.25;;;;;13.13;72.47;100645.28;4977146;28;45478;-74
2022/11/24 16:41:30;;;;;;;;;2.25;2.25;;;;;13.07;72.34;100642.94;4977858;28;45391;-73
2022/11/24 16:43:56;;;;;;;;;4.50;3.00;;;;;13.16;72.37;100654.09;4977634;28;45654;-74
2022/11/24 16:46:23;;;;;;;;;6.75;4.00;;;;;13.13;72.30;100646.19;4977876;28;46305;-73
2022/11/24 16:48:50;;;;;;;;;5.00;4.00;;;;;13.15;72.63;100649.66;4977354;28;45301;-72
2022/11/24 16:51:18;;;;;;;;;2.25;2.25;;;;;13.15;72.46;100651.47;4978138;28;45569;-73
2022/11/24 16:53:43;;;;;;;;;7.00;4.00;;;;;13.10;72.76;100649.00;4977400;28;45381;-72
2022/11/24 16:56:08;;;;;;;;;2.75;2.75;;;;;13.07;72.77;100659.09;4960238;28;47306;-74
2022/11/24 16:58:38;;;;;;;;;5.25;5.00;;;;;13.10;72.70;100657.06;4977870;28;45567;-73
2022/11/24 17:01:05;;;;;;;;;3.00;3.00;;;;;13.07;72.88;100651.03;4977960;28;45232;-74
2022/11/24 17:03:37;;;;;;;;;5.75;3.00;;;;;13.09;72.83;100649.13;4977160;28;45455;-74
2022/11/24 17:06:08;;;;;;;;;7.25;7.00;;;;;13.05;73.42;100648.41;4977384;28;46308;-73
2022/11/24 17:08:35;;;;;;;;;6.50;3.50;;;;;13.03;73.22;100644.94;4977315;28;45405;-74
2022/11/24 17:11:06;;;;;;;;;7.50;3.50;;;;;12.94;74.14;100636.53;4977317;28;45340;-75
2022/11/24 17:13:33;;;;;;;;;4.50;3.75;;;;;12.94;73.79;100642.78;4977388;28;45342;-73
2022/11/24 17:16:03;;;;;;;;;7.00;5.00;;;;;12.91;74.17;100640.28;4977643;28;45463;-71